Station: EBLG - 19/08/2018 02:20Z (il y a 6 minutes)
EBLG 190220Z 21005KT CAVOK 15/13 Q1023 NOSIG
Vent du 210º - 5 kt
Visibilité > 10 km et plafond haut ou pas de nuages significatifs
Température: +15ºC - Point de rosée: +13ºC - QNH: 1023 hPa
Pas de changement significatif prévu dans les 2 heures qui suivent l'observation